Time;durP1;ratioP1;P1;durP2;ratioP2;P2;SDS_P1;SDS_P2;PMS_P1;PMS_P2;Temp;Humidity;BMP_temperature;BMP_pressure;BME280_temperature;BME280_humidity;BME280_pressure;Samples;Min_cycle;Max_cycle;Signal;HPM_P1;HPM_P2
2021/12/19 00:01:17;;;;;;;22.55;5.78;;;;;;;4.84;91.59;101011.97;5081788;28;20289;-67
2021/12/19 00:04:01;;;;;;;20.20;4.07;;;;;;;4.82;91.54;101005.03;5082990;28;20028;-68
2021/12/19 00:09:11;;;;;;;17.63;3.08;;;;;;;4.84;91.49;101009.38;5086929;28;20023;-69
2021/12/19 00:11:36;;;;;;;13.35;2.95;;;;;;;4.85;91.21;101015.41;5085275;28;20049;-68
2021/12/19 00:14:03;;;;;;;19.05;3.92;;;;;;;4.82;91.40;101016.19;5086608;28;20602;-69
2021/12/19 00:16:28;;;;;;;22.20;3.90;;;;;;;4.85;91.14;100997.41;5085090;28;20035;-68
2021/12/19 00:18:54;;;;;;;24.13;4.47;;;;;;;4.87;91.26;100982.88;5086397;28;20025;-68
2021/12/19 00:21:21;;;;;;;17.70;3.45;;;;;;;4.86;91.28;100985.41;5086273;28;20025;-68
2021/12/19 00:23:49;;;;;;;21.55;4.43;;;;;;;4.89;91.03;100981.19;5086495;28;20047;-68
2021/12/19 00:26:15;;;;;;;12.68;2.70;;;;;;;4.87;91.14;100980.31;5086288;28;20039;-67
2021/12/19 00:28:41;;;;;;;15.90;2.88;;;;;;;4.87;91.25;100979.44;5086230;28;20020;-67
2021/12/19 00:31:07;;;;;;;11.43;2.60;;;;;;;4.95;91.45;100981.34;5086608;28;20080;-68
2021/12/19 00:33:33;;;;;;;17.95;2.80;;;;;;;5.04;91.26;100979.81;5086291;28;20035;-68
2021/12/19 00:35:58;;;;;;;19.42;2.92;;;;;;;5.07;91.21;100980.78;5085958;28;20024;-68
2021/12/19 00:38:24;;;;;;;6.43;2.80;;;;;;;5.09;90.92;100975.66;5086284;28;20021;-69
2021/12/19 00:40:50;;;;;;;13.52;2.00;;;;;;;5.10;91.01;100979.97;5086047;28;20032;-68
2021/12/19 00:43:24;;;;;;;11.15;2.50;;;;;;;5.07;90.80;100980.78;5085982;28;20024;-67
2021/12/19 00:45:52;;;;;;;11.55;2.20;;;;;;;5.08;90.82;100972.22;5086247;28;20059;-67
2021/12/19 00:48:18;;;;;;;11.80;2.15;;;;;;;5.03;90.66;100968.66;5086019;28;20163;-68
2021/12/19 00:50:44;;;;;;;9.10;3.38;;;;;;;5.00;90.49;100960.00;5085908;28;20468;-68
2021/12/19 00:53:10;;;;;;;12.38;2.17;;;;;;;4.96;90.18;100957.38;5085720;28;20028;-67
2021/12/19 00:55:37;;;;;;;10.85;2.60;;;;;;;4.96;90.25;100957.38;5085883;28;20035;-67
2021/12/19 00:58:03;;;;;;;8.50;2.00;;;;;;;4.96;90.07;100962.50;5085814;28;20024;-67
2021/12/19 01:00:33;;;;;;;9.18;2.30;;;;;;;4.93;90.42;100956.41;5085759;28;20043;-68
2021/12/19 01:03:00;;;;;;;11.77;2.03;;;;;;;4.93;89.93;100953.84;5085854;28;20103;-69
2021/12/19 01:05:27;;;;;;;14.30;2.72;;;;;;;4.98;89.96;100953.94;5086035;28;20016;-68
2021/12/19 01:07:53;;;;;;;11.20;2.08;;;;;;;4.98;89.92;100952.25;5085507;28;20033;-69
2021/12/19 01:10:19;;;;;;;8.68;1.52;;;;;;;4.95;90.27;100945.31;5085420;28;20054;-69
2021/12/19 01:12:44;;;;;;;15.23;2.78;;;;;;;5.01;89.77;100951.44;5085598;28;20048;-67
2021/12/19 01:15:13;;;;;;;11.60;2.15;;;;;;;4.95;90.03;100958.19;5085632;28;20027;-67
2021/12/19 01:17:38;;;;;;;12.02;2.75;;;;;;;5.00;89.98;100945.41;5084755;28;20036;-67
2021/12/19 01:20:11;;;;;;;9.95;2.97;;;;;;;5.01;89.86;100938.59;5085311;28;20035;-67
2021/12/19 01:22:37;;;;;;;16.45;2.22;;;;;;;4.96;89.45;100936.78;5085183;28;20031;-67
2021/12/19 01:25:03;;;;;;;10.95;2.35;;;;;;;4.96;89.67;100947.06;5085298;28;20081;-68
2021/12/19 01:27:28;;;;;;;13.02;2.25;;;;;;;4.95;90.09;100942.75;5085444;28;20500;-68
2021/12/19 01:29:54;;;;;;;11.07;2.38;;;;;;;4.95;89.81;100944.47;5085311;28;20020;-67
2021/12/19 01:32:19;;;;;;;15.95;2.38;;;;;;;4.98;89.53;100952.25;5085146;28;20039;-67
2021/12/19 01:34:44;;;;;;;17.10;2.28;;;;;;;4.94;89.76;100940.13;5085023;28;20036;-67
2021/12/19 01:37:10;;;;;;;14.98;2.60;;;;;;;4.92;89.71;100934.94;5084890;28;20020;-67
2021/12/19 01:39:35;;;;;;;12.05;3.08;;;;;;;4.87;89.42;100934.00;5084303;28;20094;-68
2021/12/19 01:42:01;;;;;;;9.82;2.83;;;;;;;4.88;89.54;100932.28;5084889;28;20025;-68
2021/12/19 01:44:26;;;;;;;8.35;1.90;;;;;;;4.91;89.67;100929.78;5084573;28;20023;-67
2021/12/19 01:46:53;;;;;;;10.57;2.33;;;;;;;4.87;89.70;100931.44;5084600;28;20032;-71
2021/12/19 01:49:21;;;;;;;12.65;2.00;;;;;;;4.85;89.93;100920.22;5084513;28;20362;-68
2021/12/19 01:51:47;;;;;;;10.75;2.13;;;;;;;4.87;89.82;100922.81;5084425;28;20021;-67
2021/12/19 01:54:13;;;;;;;8.50;2.15;;;;;;;4.82;89.87;100918.44;5084574;28;20437;-66
2021/12/19 01:56:39;;;;;;;11.93;2.20;;;;;;;4.84;89.79;100921.03;5084485;28;20396;-67
2021/12/19 01:59:07;;;;;;;9.98;1.70;;;;;;;4.82;89.95;100917.56;5084433;28;20025;-67
2021/12/19 02:01:43;;;;;;;8.27;1.63;;;;;;;4.77;89.70;100914.00;5084568;28;20028;-68
2021/12/19 02:04:10;;;;;;;16.73;2.35;;;;;;;4.75;89.67;100901.13;5084308;28;20028;-68
2021/12/19 02:06:35;;;;;;;12.20;1.90;;;;;;;4.76;89.48;100913.13;5084231;28;20025;-67
2021/12/19 02:09:05;;;;;;;12.43;2.17;;;;;;;4.68;89.01;100907.81;5084243;28;20031;-67
2021/12/19 02:11:32;;;;;;;17.40;2.10;;;;;;;4.64;88.97;100918.88;5082567;28;20128;-68
2021/12/19 02:13:58;;;;;;;8.45;2.13;;;;;;;4.61;89.14;100907.63;5084256;28;20301;-68
2021/12/19 02:16:24;;;;;;;5.05;1.90;;;;;;;4.53;88.43;100900.63;5084177;28;20028;-68
2021/12/19 02:18:49;;;;;;;16.30;1.90;;;;;;;4.54;88.59;100896.31;5083767;28;20063;-69
2021/12/19 02:21:16;;;;;;;10.25;2.00;;;;;;;4.54;88.79;100898.88;5083790;28;20013;-66
2021/12/19 02:23:41;;;;;;;13.75;1.98;;;;;;;4.50;88.76;100895.41;5084095;28;20389;-67
2021/12/19 02:26:07;;;;;;;18.88;1.75;;;;;;;4.47;88.50;100895.31;5083996;28;20060;-67
2021/12/19 02:28:32;;;;;;;12.43;3.22;;;;;;;4.47;88.61;100895.31;5083876;28;20043;-67
2021/12/19 02:30:57;;;;;;;13.00;3.10;;;;;;;4.44;88.85;100890.94;5082989;28;20028;-68
2021/12/19 02:33:26;;;;;;;16.75;2.10;;;;;;;4.51;88.87;100896.25;5083633;28;20350;-68
2021/12/19 02:49:29;;;;;;;11.23;1.67;;;;;;;4.58;89.41;100885.28;5040758;28;20032;-67
2021/12/19 02:51:55;;;;;;;12.75;2.13;;;;;;;4.55;89.56;100887.78;5024099;28;20199;-67
2021/12/19 02:54:22;;;;;;;17.20;2.60;;;;;;;4.52;89.38;100885.16;5040905;28;20064;-67
2021/12/19 02:56:49;;;;;;;14.23;2.35;;;;;;;4.42;89.15;100874.63;5040932;28;20056;-67
2021/12/19 02:59:14;;;;;;;11.98;1.95;;;;;;;4.46;88.90;100871.31;5040794;28;20018;-66
2021/12/19 03:01:43;;;;;;;9.85;1.85;;;;;;;4.44;88.62;100874.69;5040606;28;20124;-67
2021/12/19 03:04:08;;;;;;;12.63;2.33;;;;;;;4.46;88.67;100879.00;5040860;28;20025;-67
2021/12/19 03:06:34;;;;;;;12.30;2.38;;;;;;;4.48;89.16;100866.19;5040577;28;20036;-67
2021/12/19 03:09:05;;;;;;;15.55;3.70;;;;;;;4.49;89.46;100872.22;5040485;28;20034;-68
2021/12/19 03:12:04;;;;;;;10.90;1.90;;;;;;;4.49;89.61;100877.34;5040537;28;20231;-67
2021/12/19 03:19:59;;;;;;;13.77;2.45;;;;;;;4.39;89.87;100864.28;5083155;28;20036;-68
2021/12/19 03:22:25;;;;;;;19.27;3.10;;;;;;;4.37;89.78;100855.66;5082827;28;20384;-68
2021/12/19 03:24:50;;;;;;;6.25;1.83;;;;;;;4.39;90.08;100861.72;5083314;28;20025;-68
2021/12/19 03:27:16;;;;;;;12.65;2.33;;;;;;;4.40;89.96;100855.72;5083441;28;20028;-68
2021/12/19 03:29:41;;;;;;;16.45;2.00;;;;;;;4.38;90.04;100857.38;5083044;28;20024;-67
2021/12/19 03:32:06;;;;;;;9.13;2.97;;;;;;;4.40;89.90;100845.44;5083429;28;20052;-67
2021/12/19 03:34:34;;;;;;;13.23;2.58;;;;;;;4.33;89.30;100841.84;5083238;28;20032;-67
2021/12/19 03:36:59;;;;;;;16.20;2.58;;;;;;;4.31;89.38;100846.06;5083114;28;20040;-67
2021/12/19 03:39:27;;;;;;;11.98;2.45;;;;;;;4.33;89.28;100840.97;5083084;28;20017;-67
2021/12/19 03:41:55;;;;;;;14.30;2.92;;;;;;;4.34;89.49;100847.88;5085764;28;20047;-67
2021/12/19 03:44:20;;;;;;;15.98;2.55;;;;;;;4.35;89.56;100841.88;5087474;28;20092;-67
2021/12/19 03:46:46;;;;;;;15.15;2.05;;;;;;;4.38;89.97;100854.81;5087203;28;20028;-67
2021/12/19 03:49:11;;;;;;;21.80;2.55;;;;;;;4.41;90.20;100849.75;5087254;28;20017;-67
2021/12/19 03:51:37;;;;;;;15.88;2.40;;;;;;;4.36;90.21;100840.19;5087175;28;20020;-68
2021/12/19 03:54:02;;;;;;;18.80;2.33;;;;;;;4.44;90.32;100848.97;5087170;28;20025;-68
2021/12/19 03:56:27;;;;;;;15.13;2.72;;;;;;;4.46;90.18;100853.31;5087071;28;20017;-67
2021/12/19 03:58:53;;;;;;;12.00;2.22;;;;;;;4.47;90.28;100852.47;5086951;28;20056;-67
2021/12/19 04:01:19;;;;;;;11.00;2.38;;;;;;;4.49;90.34;100846.50;5087071;28;20084;-67
2021/12/19 04:03:46;;;;;;;13.48;2.30;;;;;;;4.53;90.36;100848.31;5085537;28;20055;-67
2021/12/19 04:06:11;;;;;;;13.73;1.73;;;;;;;4.54;90.22;100840.63;5086862;28;20107;-67
2021/12/19 04:08:36;;;;;;;9.13;1.63;;;;;;;4.60;90.04;100847.59;5086947;28;20024;-67
2021/12/19 04:11:03;;;;;;;17.90;3.30;;;;;;;4.61;90.10;100841.66;5086665;28;20052;-66
2021/12/19 04:13:28;;;;;;;11.93;1.95;;;;;;;4.64;89.91;100836.56;5086870;28;20064;-67
2021/12/19 04:15:53;;;;;;;13.90;2.55;;;;;;;4.66;89.63;100845.19;5086704;28;20017;-67
2021/12/19 04:18:19;;;;;;;17.15;2.53;;;;;;;4.63;89.51;100837.41;5086634;28;20040;-67
2021/12/19 04:20:44;;;;;;;13.93;3.10;;;;;;;4.62;89.74;100832.25;5086597;28;20071;-67
2021/12/19 04:23:10;;;;;;;5.90;2.05;;;;;;;4.65;89.40;100840.88;5086399;28;20045;-67
2021/12/19 04:25:35;;;;;;;13.07;2.30;;;;;;;4.64;89.40;100836.56;5086556;28;20104;-67
2021/12/19 04:28:00;;;;;;;8.60;2.30;;;;;;;4.65;89.73;100842.59;5086556;28;20021;-67
2021/12/19 04:30:26;;;;;;;12.82;2.00;;;;;;;4.62;89.95;100843.38;5086438;28;20016;-67
2021/12/19 04:33:02;;;;;;;7.03;2.00;;;;;;;4.70;89.70;100833.25;5086304;28;20429;-67
2021/12/19 04:35:32;;;;;;;11.27;2.45;;;;;;;4.72;89.95;100836.75;5086622;28;20027;-67
2021/12/19 04:52:11;;;;;;;8.90;2.53;;;;;;;4.60;89.57;100832.16;5023538;28;20056;-67
2021/12/19 05:02:34;;;;;;;11.57;1.95;;;;;;;4.52;89.45;100834.56;5023371;28;20026;-67
2021/12/19 05:15:45;;;;;;;9.82;2.58;;;;;;;4.46;89.83;100832.72;5023214;28;20032;-67
2021/12/19 05:18:11;;;;;;;16.33;2.97;;;;;;;4.43;89.88;100831.78;5022834;28;20142;-66
2021/12/19 05:20:39;;;;;;;13.82;2.40;;;;;;;4.39;89.96;100825.72;5063996;28;20088;-66
2021/12/19 05:23:18;;;;;;;18.67;2.85;;;;;;;4.46;89.98;100835.31;5085529;28;20024;-67
2021/12/19 05:25:43;;;;;;;10.85;2.28;;;;;;;4.51;90.09;100829.38;5085772;28;20021;-67
2021/12/19 05:28:09;;;;;;;22.90;2.80;;;;;;;4.49;89.89;100823.38;5083978;28;20031;-67
2021/12/19 05:30:34;;;;;;;13.27;2.50;;;;;;;4.53;90.10;100828.59;5085432;28;20033;-66
2021/12/19 05:33:01;;;;;;;13.10;2.50;;;;;;;4.54;90.13;100830.34;5085191;28;20419;-67
2021/12/19 05:46:47;;;;;;;12.15;2.75;;;;;;;4.46;90.39;100812.16;5022309;28;20033;-67
2021/12/19 05:49:12;;;;;;;19.27;2.65;;;;;;;4.52;90.40;100818.28;5005734;28;20022;-67
2021/12/19 05:51:38;;;;;;;15.10;2.00;;;;;;;4.56;90.67;100823.53;5022454;28;20106;-67
2021/12/19 05:54:05;;;;;;;14.90;2.35;;;;;;;4.57;90.85;100814.09;5022549;28;20056;-67
2021/12/19 05:56:31;;;;;;;20.30;3.05;;;;;;;4.58;90.97;100814.13;5005693;28;20425;-66
2021/12/19 05:58:56;;;;;;;15.25;2.63;;;;;;;4.66;90.74;100823.75;5022061;28;20181;-66
2021/12/19 06:01:22;;;;;;;19.08;2.15;;;;;;;4.65;90.63;100817.72;5022097;28;20113;-66
2021/12/19 06:03:47;;;;;;;16.25;2.83;;;;;;;4.73;90.84;100827.34;5021700;28;20042;-66
2021/12/19 06:06:13;;;;;;;14.60;2.58;;;;;;;4.68;90.58;100812.66;5022015;28;20045;-67
2021/12/19 06:08:38;;;;;;;20.40;3.50;;;;;;;4.76;90.64;100827.41;5022001;28;20092;-67
2021/12/19 06:11:03;;;;;;;16.30;3.47;;;;;;;4.71;90.75;100819.59;5005185;28;20041;-66
2021/12/19 06:13:29;;;;;;;17.38;2.58;;;;;;;4.77;90.74;100823.97;5021927;28;20026;-66
2021/12/19 06:15:57;;;;;;;12.55;3.60;;;;;;;4.81;90.75;100818.94;5005493;28;20037;-66
2021/12/19 06:18:23;;;;;;;17.65;3.03;;;;;;;4.83;91.11;100821.53;5055733;28;20045;-67
2021/12/19 06:20:48;;;;;;;17.92;3.05;;;;;;;4.83;90.78;100826.69;5061716;28;20052;-66
2021/12/19 06:23:14;;;;;;;20.67;2.78;;;;;;;4.90;91.14;100869.75;5080692;28;20095;-66
2021/12/19 06:25:46;;;;;;;21.45;2.70;;;;;;;4.91;90.67;100862.88;5084383;28;20031;-66
2021/12/19 06:28:16;;;;;;;15.48;3.05;;;;;;;4.78;90.55;100866.88;5084275;28;20507;-66
2021/12/19 06:30:41;;;;;;;13.63;2.70;;;;;;;4.68;90.39;100869.22;5084029;28;20040;-69
2021/12/19 06:33:07;;;;;;;17.42;2.63;;;;;;;4.56;90.08;100861.22;5082812;28;20021;-66
2021/12/19 06:35:32;;;;;;;12.93;3.25;;;;;;;4.43;90.05;100857.50;5084323;28;20028;-68
2021/12/19 06:37:58;;;;;;;13.70;2.05;;;;;;;4.36;90.56;100865.91;5083863;28;20048;-69
2021/12/19 06:40:24;;;;;;;18.10;2.28;;;;;;;4.37;90.44;100860.78;5083732;28;20039;-66
2021/12/19 06:42:50;;;;;;;21.17;2.60;;;;;;;4.32;90.57;100849.53;5082580;28;20028;-66
2021/12/19 06:45:16;;;;;;;13.48;2.92;;;;;;;4.26;90.71;100850.25;5083885;28;20054;-66
2021/12/19 06:47:41;;;;;;;17.77;2.88;;;;;;;4.23;90.71;100852.75;5083898;28;20020;-68
2021/12/19 06:50:08;;;;;;;22.67;3.83;;;;;;;4.16;90.83;100832.84;5083663;28;20025;-66
2021/12/19 06:52:35;;;;;;;20.55;4.22;;;;;;;4.19;90.56;100849.22;5083660;28;20024;-67
2021/12/19 06:55:00;;;;;;;19.92;5.10;;;;;;;4.18;90.73;100851.75;5083929;28;20115;-67
2021/12/19 06:57:26;;;;;;;18.55;2.40;;;;;;;4.17;90.78;100861.16;5083418;28;20071;-66
2021/12/19 06:59:51;;;;;;;11.30;2.20;;;;;;;4.19;90.88;100858.63;5083521;28;20036;-67
2021/12/19 07:02:17;;;;;;;9.50;2.28;;;;;;;4.21;90.94;100872.38;5083655;28;20088;-67
2021/12/19 07:04:43;;;;;;;8.05;2.05;;;;;;;4.24;90.88;100869.03;5082194;28;20227;-66
2021/12/19 07:07:08;;;;;;;21.98;3.75;;;;;;;4.21;91.01;100863.00;5083502;28;20025;-67
2021/12/19 07:09:34;;;;;;;14.75;2.95;;;;;;;4.25;90.85;100863.06;5083425;28;20117;-67
2021/12/19 07:11:59;;;;;;;11.52;2.00;;;;;;;4.25;90.84;100866.47;5081914;28;20063;-67
2021/12/19 07:14:24;;;;;;;12.18;2.45;;;;;;;4.16;90.96;100864.56;5082028;28;20024;-67
2021/12/19 07:17:05;;;;;;;12.40;2.40;;;;;;;4.16;90.88;100868.81;5082547;28;20020;-67
2021/12/19 07:19:31;;;;;;;12.38;2.03;;;;;;;4.15;90.80;100867.09;5083058;28;20021;-67
2021/12/19 07:21:59;;;;;;;14.70;3.08;;;;;;;4.14;90.77;100873.94;5083204;28;20023;-68
2021/12/19 07:24:24;;;;;;;14.55;2.30;;;;;;;4.11;90.82;100865.25;5083311;28;20024;-67
2021/12/19 07:26:50;;;;;;;9.32;1.80;;;;;;;4.08;90.56;100866.06;5083283;28;20051;-67
2021/12/19 07:29:18;;;;;;;11.20;2.10;;;;;;;4.08;90.59;100871.19;5081771;28;20074;-67
2021/12/19 07:31:44;;;;;;;7.38;2.20;;;;;;;4.05;90.57;100873.69;5083318;28;20024;-67
2021/12/19 07:34:09;;;;;;;13.57;2.28;;;;;;;3.99;90.47;100873.53;5083164;28;20024;-67
2021/12/19 07:36:50;;;;;;;16.40;2.22;;;;;;;3.92;90.45;100868.25;5082939;28;20079;-67
2021/12/19 07:39:53;;;;;;;9.82;1.48;;;;;;;3.95;90.86;100876.03;5083185;28;20035;-67
2021/12/19 07:42:12;;;;;;;8.02;1.70;;;;;;;3.94;90.46;100876.88;5080928;28;20056;-67
2021/12/19 07:44:39;;;;;;;9.95;2.17;;;;;;;3.95;90.54;100891.44;5081843;28;20340;-68
2021/12/19 07:47:08;;;;;;;10.57;2.10;;;;;;;3.97;90.30;100879.50;5083072;28;20389;-69
2021/12/19 07:49:34;;;;;;;7.45;2.88;;;;;;;3.99;90.28;100876.09;5083021;28;20029;-67
2021/12/19 07:52:00;;;;;;;3.97;1.75;;;;;;;3.97;90.24;100878.63;5082879;28;20451;-66
2021/12/19 07:54:25;;;;;;;8.38;1.50;;;;;;;3.99;89.84;100869.28;5083238;28;20079;-68
2021/12/19 07:56:54;;;;;;;8.80;2.08;;;;;;;3.95;89.75;100888.88;5082959;28;20020;-68
2021/12/19 07:59:19;;;;;;;3.75;1.20;;;;;;;3.97;88.99;100884.66;5083339;28;20040;-67
2021/12/19 08:01:45;;;;;;;6.43;1.60;;;;;;;4.00;88.80;100888.09;5083068;28;20020;-67
2021/12/19 08:04:10;;;;;;;5.05;1.95;;;;;;;3.98;88.36;100895.78;5083317;28;20044;-67
2021/12/19 08:06:36;;;;;;;4.32;1.38;;;;;;;4.00;88.26;100898.38;5082806;28;20350;-68
2021/12/19 08:09:08;;;;;;;7.20;1.40;;;;;;;4.04;88.21;100895.09;5083014;28;20036;-67
2021/12/19 08:11:40;;;;;;;4.22;1.25;;;;;;;4.13;87.49;100900.47;5082888;28;20047;-67
2021/12/19 08:14:11;;;;;;;4.13;1.38;;;;;;;4.20;86.30;100906.66;5083116;28;20025;-68
2021/12/19 08:16:37;;;;;;;4.20;0.87;;;;;;;4.19;85.73;100903.19;5081662;28;20028;-66
2021/12/19 08:19:05;;;;;;;7.82;1.30;;;;;;;4.16;85.27;100887.69;5082573;28;20028;-67
2021/12/19 08:21:30;;;;;;;2.20;1.13;;;;;;;4.21;84.97;100880.97;5082933;28;20127;-66
2021/12/19 08:24:00;;;;;;;1.70;0.82;;;;;;;4.37;83.81;100890.75;5083084;28;20024;-64
2021/12/19 08:26:25;;;;;;;1.42;1.02;;;;;;;4.38;83.18;100892.53;5083051;28;20040;-67
2021/12/19 08:28:51;;;;;;;7.00;1.00;;;;;;;4.46;82.87;100896.13;5086272;28;20073;-67
2021/12/19 08:31:16;;;;;;;2.45;0.98;;;;;;;4.55;82.52;100903.22;5086663;28;20027;-66
2021/12/19 08:33:41;;;;;;;2.08;0.60;;;;;;;4.74;81.98;100901.09;5086471;28;20055;-68
2021/12/19 08:36:07;;;;;;;1.60;0.80;;;;;;;4.86;81.17;100911.66;5086577;28;20023;-67
2021/12/19 08:38:34;;;;;;;3.95;1.77;;;;;;;4.87;79.57;100895.41;5086175;28;20024;-67
2021/12/19 08:40:59;;;;;;;1.75;0.90;;;;;;;5.01;79.90;100905.13;5086100;28;20049;-67
2021/12/19 08:43:24;;;;;;;3.10;0.77;;;;;;;5.19;79.39;100912.41;5086132;28;20029;-67
2021/12/19 08:45:50;;;;;;;3.03;0.70;;;;;;;5.37;77.40;100904.19;5084820;28;20069;-67
2021/12/19 08:48:18;;;;;;;1.13;0.68;;;;;;;5.60;77.44;100920.97;5085992;28;20092;-67
2021/12/19 08:50:44;;;;;;;2.08;0.65;;;;;;;5.78;76.83;100881.81;5086346;28;20122;-68
2021/12/19 08:53:09;;;;;;;0.80;0.60;;;;;;;6.01;75.14;100931.22;5085930;28;20551;-68
2021/12/19 08:55:34;;;;;;;1.38;0.50;;;;;;;5.96;73.93;100909.63;5086061;28;20065;-76
2021/12/19 08:58:00;;;;;;;2.08;0.70;;;;;;;6.26;73.91;100918.78;5086295;28;20036;-75
2021/12/19 09:00:25;;;;;;;1.98;0.60;;;;;;;6.48;72.54;100918.31;5085621;28;20078;-70
2021/12/19 09:02:53;;;;;;;1.17;0.70;;;;;;;6.57;73.19;100921.03;5085876;28;20028;-67
2021/12/19 09:05:20;;;;;;;0.80;0.45;;;;;;;7.00;71.40;100931.16;5085899;28;20024;-66
2021/12/19 09:07:46;;;;;;;1.00;0.60;;;;;;;7.07;69.27;100924.38;5085501;28;20024;-67
2021/12/19 09:10:12;;;;;;;4.45;1.88;;;;;;;7.40;70.74;100915.34;5085349;28;20048;-69
2021/12/19 09:12:38;;;;;;;0.70;0.55;;;;;;;7.43;69.18;100941.22;5085728;28;20388;-69
2021/12/19 09:15:05;;;;;;;0.73;0.50;;;;;;;7.22;68.34;100936.63;5085435;28;20465;-69
2021/12/19 09:17:30;;;;;;;1.20;0.63;;;;;;;7.39;68.16;100938.59;5085553;28;20028;-68
2021/12/19 09:19:56;;;;;;;0.90;0.70;;;;;;;7.39;68.08;100944.63;5085354;28;20087;-68
2021/12/19 09:22:21;;;;;;;1.58;0.63;;;;;;;7.36;68.29;100944.59;5085273;28;20033;-69
2021/12/19 09:24:46;;;;;;;0.80;0.60;;;;;;;7.24;68.02;100965.06;5085684;28;20115;-70
2021/12/19 09:27:12;;;;;;;0.85;0.60;;;;;;;7.04;65.72;100958.78;5085527;28;20021;-68
2021/12/19 09:29:37;;;;;;;0.82;0.70;;;;;;;6.77;67.84;100969.53;5083806;28;20500;-69
2021/12/19 09:32:03;;;;;;;1.05;0.60;;;;;;;6.27;67.54;100955.78;5085543;28;20055;-70
2021/12/19 09:34:29;;;;;;;0.85;0.63;;;;;;;5.87;66.57;100951.56;5085207;28;20029;-71
2021/12/19 09:36:56;;;;;;;1.45;0.70;;;;;;;5.68;67.58;100955.47;5085083;28;20029;-68
2021/12/19 09:39:24;;;;;;;1.15;0.50;;;;;;;5.73;68.52;100969.34;5084235;28;20024;-68
2021/12/19 09:41:56;;;;;;;2.47;0.90;;;;;;;5.57;69.16;100968.13;5085078;28;20040;-71
2021/12/19 09:44:22;;;;;;;0.70;0.60;;;;;;;5.35;68.37;100949.66;5084799;28;20044;-67
2021/12/19 09:46:49;;;;;;;0.88;0.63;;;;;;;5.53;69.63;100969.78;5084608;28;20025;-68
2021/12/19 09:49:18;;;;;;;0.75;0.57;;;;;;;5.80;68.25;100983.19;5084077;28;20035;-67
2021/12/19 09:51:44;;;;;;;1.10;0.70;;;;;;;6.56;67.31;100971.78;5084813;28;20473;-68
2021/12/19 09:54:11;;;;;;;1.05;0.63;;;;;;;7.47;66.55;100992.94;5084980;28;20031;-67
2021/12/19 09:56:38;;;;;;;0.77;0.50;;;;;;;8.34;64.23;100993.97;5084931;28;20047;-67
2021/12/19 09:59:10;;;;;;;1.85;0.50;;;;;;;8.85;60.98;100972.91;5084589;28;20384;-67
2021/12/19 10:01:36;;;;;;;1.15;0.60;;;;;;;9.13;59.34;100987.78;5084711;28;20028;-67
2021/12/19 10:04:03;;;;;;;2.08;0.80;;;;;;;9.41;59.16;100990.53;5084770;28;20102;-67
2021/12/19 10:06:30;;;;;;;1.20;0.50;;;;;;;9.45;57.45;100994.91;5084438;28;20090;-67
2021/12/19 10:09:08;;;;;;;0.90;0.55;;;;;;;9.57;58.47;101019.16;5084540;28;20095;-68
2021/12/19 10:12:25;;;;;;;0.57;0.50;;;;;;;9.62;55.47;100999.28;5084264;28;20048;-68
2021/12/19 10:14:31;;;;;;;0.60;0.50;;;;;;;9.55;56.93;101007.03;5078585;28;20032;-67
2021/12/19 10:16:59;;;;;;;0.80;0.60;;;;;;;9.20;56.75;100997.31;5084520;28;20034;-68
2021/12/19 10:19:46;;;;;;;0.52;0.47;;;;;;;8.92;59.30;101015.25;5084225;28;20047;-68
2021/12/19 10:22:25;;;;;;;0.65;0.50;;;;;;;8.61;57.74;101018.44;5084237;28;20031;-68
2021/12/19 10:24:52;;;;;;;1.10;0.50;;;;;;;8.27;57.92;101025.81;5084407;28;20032;-67
2021/12/19 10:27:39;;;;;;;2.25;0.50;;;;;;;7.97;59.23;100973.75;5084695;28;20071;-67
2021/12/19 10:30:34;;;;;;;0.68;0.50;;;;;;;7.71;55.78;101014.78;5084128;28;20028;-65
2021/12/19 10:33:02;;;;;;;1.52;0.50;;;;;;;7.63;57.97;100999.19;5084435;28;20070;-68
2021/12/19 10:35:29;;;;;;;1.48;0.60;;;;;;;7.57;58.19;101041.34;5084100;28;20051;-67
2021/12/19 10:37:55;;;;;;;0.73;0.50;;;;;;;7.35;56.50;101012.59;5084017;28;20034;-68
2021/12/19 10:40:22;;;;;;;0.55;0.52;;;;;;;7.17;58.30;101011.47;5083847;28;20074;-66
2021/12/19 10:43:00;;;;;;;0.73;0.60;;;;;;;6.98;57.01;101005.13;5084027;28;20079;-67
2021/12/19 10:45:43;;;;;;;0.50;0.50;;;;;;;6.93;59.01;100992.16;5083999;28;20040;-68
2021/12/19 10:48:15;;;;;;;1.85;0.70;;;;;;;6.78;58.60;101044.41;5083999;28;20028;-67
2021/12/19 10:50:49;;;;;;;0.75;0.55;;;;;;;6.71;58.43;101021.88;5081628;28;20025;-67
2021/12/19 10:53:16;;;;;;;0.60;0.50;;;;;;;6.59;55.38;101039.75;5082357;28;20025;-68
2021/12/19 10:55:47;;;;;;;0.68;0.57;;;;;;;6.54;59.44;101044.81;5083704;28;20096;-69
2021/12/19 10:58:26;;;;;;;0.50;0.50;;;;;;;6.48;56.73;101040.44;5082504;28;20336;-68
2021/12/19 11:01:14;;;;;;;1.85;0.50;;;;;;;6.34;56.19;101027.28;5082169;28;20418;-69
2021/12/19 11:03:45;;;;;;;0.50;0.50;;;;;;;6.24;54.28;101056.28;5082513;28;20024;-69
2021/12/19 11:06:18;;;;;;;2.78;0.70;;;;;;;6.20;55.44;101045.91;5083679;28;20051;-69
2021/12/19 11:08:45;;;;;;;0.60;0.60;;;;;;;5.92;53.98;101050.47;5083401;28;20035;-67
2021/12/19 11:11:12;;;;;;;1.85;0.50;;;;;;;5.91;53.61;101009.22;5083141;28;20100;-69
2021/12/19 11:13:38;;;;;;;2.80;0.88;;;;;;;5.83;54.85;101052.84;5083221;28;20031;-67
2021/12/19 11:16:04;;;;;;;0.82;0.60;;;;;;;5.80;55.43;101027.88;5083583;28;20079;-67
2021/12/19 11:18:30;;;;;;;0.68;0.68;;;;;;;6.05;55.60;101049.03;5083408;28;20032;-68
2021/12/19 11:20:56;;;;;;;1.17;0.63;;;;;;;6.22;55.07;101053.66;5083241;28;20059;-67
2021/12/19 11:23:21;;;;;;;2.33;0.80;;;;;;;6.46;56.37;101067.88;5083334;28;20055;-68
2021/12/19 11:25:47;;;;;;;2.10;0.63;;;;;;;6.68;57.25;101064.00;5083390;28;20038;-67
2021/12/19 11:28:13;;;;;;;1.45;0.90;;;;;;;6.52;56.09;101051.66;5083406;28;20472;-68
2021/12/19 11:30:39;;;;;;;1.88;0.70;;;;;;;6.23;57.91;101049.41;5083162;28;20021;-68
2021/12/19 11:33:39;;;;;;;1.85;0.70;;;;;;;6.08;56.16;101045.66;5083168;28;20024;-67
2021/12/19 11:36:07;;;;;;;0.65;0.65;;;;;;;5.93;58.42;101054.78;5020424;28;20044;-68
2021/12/19 11:38:36;;;;;;;0.60;0.57;;;;;;;5.79;55.89;101053.59;5003617;28;20022;-68
2021/12/19 11:41:11;;;;;;;0.95;0.70;;;;;;;5.67;58.22;101074.84;5003730;28;20556;-67
2021/12/19 11:43:38;;;;;;;1.33;0.70;;;;;;;5.53;58.61;101069.34;5020597;28;20030;-68
2021/12/19 11:46:12;;;;;;;1.20;0.70;;;;;;;5.42;57.10;101040.75;5020362;28;20062;-68
2021/12/19 11:48:39;;;;;;;0.77;0.68;;;;;;;5.19;56.89;101075.44;5020426;28;20044;-69
2021/12/19 11:51:16;;;;;;;1.17;0.77;;;;;;;5.03;58.58;101055.31;5020594;28;20037;-69
2021/12/19 11:53:43;;;;;;;1.38;1.02;;;;;;;4.94;58.49;101069.69;4988733;28;20041;-67
2021/12/19 11:56:14;;;;;;;1.25;0.90;;;;;;;4.79;59.24;101048.72;5020525;28;20026;-68
2021/12/19 11:58:45;;;;;;;2.17;1.45;;;;;;;4.73;56.87;101084.56;5020343;28;20030;-67
2021/12/19 12:01:28;;;;;;;2.53;1.58;;;;;;;4.62;56.31;101079.13;5020276;28;20030;-67
2021/12/19 12:04:10;;;;;;;1.27;0.82;;;;;;;4.56;56.85;101080.69;5007661;28;20026;-68
2021/12/19 12:06:38;;;;;;;0.73;0.60;;;;;;;4.53;56.79;101080.63;5024359;28;20037;-68
2021/12/19 12:09:26;;;;;;;1.27;0.82;;;;;;;4.54;58.23;101086.59;5024088;28;20034;-68
2021/12/19 12:12:00;;;;;;;2.75;0.60;;;;;;;4.51;58.21;101079.69;5038804;28;20048;-68
2021/12/19 12:14:31;;;;;;;1.52;0.63;;;;;;;4.44;58.04;101067.50;5086658;28;20098;-68
2021/12/19 12:17:00;;;;;;;2.00;0.88;;;;;;;4.45;58.94;101080.41;5085077;28;20027;-67
2021/12/19 12:19:44;;;;;;;2.40;0.80;;;;;;;4.45;60.65;101079.53;5086550;28;20051;-67
2021/12/19 12:22:32;;;;;;;4.20;0.80;;;;;;;4.41;61.32;101091.41;5086415;28;20103;-67
2021/12/19 12:25:19;;;;;;;2.33;0.70;;;;;;;4.39;61.64;101082.81;5086492;28;20084;-68
2021/12/19 12:28:02;;;;;;;0.60;0.60;;;;;;;4.41;62.52;101083.69;5086328;28;20035;-67
2021/12/19 12:30:41;;;;;;;1.08;0.60;;;;;;;4.31;60.71;101061.16;5084500;28;20024;-67
2021/12/19 12:33:09;;;;;;;1.75;0.70;;;;;;;4.33;60.15;101077.47;5086499;28;20024;-67
2021/12/19 12:35:40;;;;;;;1.05;0.90;;;;;;;4.32;59.85;101080.88;5086262;28;20492;-66
2021/12/19 12:38:07;;;;;;;3.63;1.02;;;;;;;4.20;60.63;101079.69;5086105;28;20067;-67
2021/12/19 12:43:26;;;;;;;2.65;0.82;;;;;;;4.15;60.83;101068.44;5086371;28;20028;-68